sensor_id;sensor_type;location;lat;lon;timestamp;pressure;altitude;pressure_sealevel;temperature;humidity
71457;BME280;59263;48.160;11.752;2023-04-15T00:01:59;94802.97;;;5.05;100.00
71457;BME280;59263;48.160;11.752;2023-04-15T00:04:24;94789.59;;;4.92;100.00
71457;BME280;59263;48.160;11.752;2023-04-15T00:06:50;94803.75;;;4.96;100.00
71457;BME280;59263;48.160;11.752;2023-04-15T00:09:19;94802.28;;;5.03;100.00
71457;BME280;59263;48.160;11.752;2023-04-15T00:11:45;94796.50;;;5.01;100.00
71457;BME280;59263;48.160;11.752;2023-04-15T00:14:11;94798.38;;;4.99;100.00
71457;BME280;59263;48.160;11.752;2023-04-15T00:16:37;94800.94;;;4.99;100.00
71457;BME280;59263;48.160;11.752;2023-04-15T00:19:02;94809.84;;;5.05;100.00
71457;BME280;59263;48.160;11.752;2023-04-15T00:21:28;94800.13;;;5.08;100.00
71457;BME280;59263;48.160;11.752;2023-04-15T00:23:53;94802.69;;;5.08;100.00
71457;BME280;59263;48.160;11.752;2023-04-15T00:26:19;94806.63;;;5.13;100.00
71457;BME280;59263;48.160;11.752;2023-04-15T00:28:45;94799.19;;;5.09;100.00
71457;BME280;59263;48.160;11.752;2023-04-15T00:31:11;94781.13;;;5.01;100.00
71457;BME280;59263;48.160;11.752;2023-04-15T00:33:36;94801.22;;;5.06;100.00
71457;BME280;59263;48.160;11.752;2023-04-15T00:36:02;94795.56;;;5.12;100.00
71457;BME280;59263;48.160;11.752;2023-04-15T00:38:28;94795.94;;;5.07;100.00
71457;BME280;59263;48.160;11.752;2023-04-15T00:40:54;94790.00;;;5.07;100.00
71457;BME280;59263;48.160;11.752;2023-04-15T00:43:20;94789.75;;;5.20;100.00
71457;BME280;59263;48.160;11.752;2023-04-15T00:45:45;94799.31;;;5.18;100.00
71457;BME280;59263;48.160;11.752;2023-04-15T00:48:11;94802.56;;;5.20;100.00
71457;BME280;59263;48.160;11.752;2023-04-15T00:50:36;94776.13;;;5.09;100.00
71457;BME280;59263;48.160;11.752;2023-04-15T00:53:02;94789.75;;;5.20;100.00
71457;BME280;59263;48.160;11.752;2023-04-15T00:55:27;94792.44;;;5.18;100.00
71457;BME280;59263;48.160;11.752;2023-04-15T00:57:53;94784.63;;;5.20;100.00
71457;BME280;59263;48.160;11.752;2023-04-15T01:00:19;94780.28;;;5.30;100.00
71457;BME280;59263;48.160;11.752;2023-04-15T01:02:44;94782.44;;;5.25;100.00
71457;BME280;59263;48.160;11.752;2023-04-15T01:05:10;94775.28;;;5.19;100.00
71457;BME280;59263;48.160;11.752;2023-04-15T01:07:35;94784.75;;;5.18;100.00
71457;BME280;59263;48.160;11.752;2023-04-15T01:10:04;94786.91;;;5.23;100.00
71457;BME280;59263;48.160;11.752;2023-04-15T01:12:31;94792.69;;;5.25;100.00
71457;BME280;59263;48.160;11.752;2023-04-15T01:14:58;94785.16;;;5.23;100.00
71457;BME280;59263;48.160;11.752;2023-04-15T01:17:23;94780.16;;;5.12;100.00
71457;BME280;59263;48.160;11.752;2023-04-15T01:19:50;94775.84;;;5.13;100.00
71457;BME280;59263;48.160;11.752;2023-04-15T01:22:16;94774.63;;;5.17;100.00
71457;BME280;59263;48.160;11.752;2023-04-15T01:24:45;94791.75;;;5.26;100.00
71457;BME280;59263;48.160;11.752;2023-04-15T01:27:16;94777.59;;;5.22;100.00
71457;BME280;59263;48.160;11.752;2023-04-15T01:29:41;94785.81;;;5.25;100.00
71457;BME280;59263;48.160;11.752;2023-04-15T01:32:07;94782.44;;;5.25;100.00
71457;BME280;59263;48.160;11.752;2023-04-15T01:34:32;94787.03;;;5.31;100.00
71457;BME280;59263;48.160;11.752;2023-04-15T01:36:57;94792.44;;;5.28;100.00
71457;BME280;59263;48.160;11.752;2023-04-15T01:39:23;94790.81;;;5.27;100.00
71457;BME280;59263;48.160;11.752;2023-04-15T01:41:48;94785.28;;;5.31;100.00
71457;BME280;59263;48.160;11.752;2023-04-15T01:44:13;94786.50;;;5.27;100.00
71457;BME280;59263;48.160;11.752;2023-04-15T01:46:38;94794.72;;;5.31;100.00
71457;BME280;59263;48.160;11.752;2023-04-15T01:49:04;94784.06;;;5.26;100.00
71457;BME280;59263;48.160;11.752;2023-04-15T01:51:29;94780.41;;;5.19;100.00
71457;BME280;59263;48.160;11.752;2023-04-15T01:53:54;94791.09;;;5.24;100.00
71457;BME280;59263;48.160;11.752;2023-04-15T01:56:22;94789.59;;;5.31;100.00
71457;BME280;59263;48.160;11.752;2023-04-15T01:58:48;94781.38;;;5.18;100.00
71457;BME280;59263;48.160;11.752;2023-04-15T02:01:14;94777.19;;;5.17;100.00
71457;BME280;59263;48.160;11.752;2023-04-15T02:03:41;94788.91;;;5.29;100.00
71457;BME280;59263;48.160;11.752;2023-04-15T02:06:06;94788.25;;;5.27;100.00
71457;BME280;59263;48.160;11.752;2023-04-15T02:08:32;94772.72;;;5.19;100.00
71457;BME280;59263;48.160;11.752;2023-04-15T02:10:57;94769.22;;;5.20;100.00
71457;BME280;59263;48.160;11.752;2023-04-15T02:13:23;94779.06;;;5.24;100.00
71457;BME280;59263;48.160;11.752;2023-04-15T02:15:49;94775.03;;;5.31;100.00
71457;BME280;59263;48.160;11.752;2023-04-15T02:18:15;94779.47;;;5.39;100.00
71457;BME280;59263;48.160;11.752;2023-04-15T02:20:40;94780.81;;;5.43;100.00
71457;BME280;59263;48.160;11.752;2023-04-15T02:23:07;94773.66;;;5.37;100.00
71457;BME280;59263;48.160;11.752;2023-04-15T02:25:32;94780.00;;;5.33;100.00
71457;BME280;59263;48.160;11.752;2023-04-15T02:27:58;94773.53;;;5.29;100.00
71457;BME280;59263;48.160;11.752;2023-04-15T02:30:23;94771.38;;;5.24;100.00
71457;BME280;59263;48.160;11.752;2023-04-15T02:32:49;94761.66;;;5.28;100.00
71457;BME280;59263;48.160;11.752;2023-04-15T02:35:15;94778.94;;;5.36;100.00
71457;BME280;59263;48.160;11.752;2023-04-15T02:37:40;94776.78;;;5.31;100.00
71457;BME280;59263;48.160;11.752;2023-04-15T02:40:08;94775.72;;;5.24;100.00
71457;BME280;59263;48.160;11.752;2023-04-15T02:42:36;94783.53;;;5.32;100.00
71457;BME280;59263;48.160;11.752;2023-04-15T02:45:01;94775.72;;;5.24;100.00
71457;BME280;59263;48.160;11.752;2023-04-15T02:47:27;94780.28;;;5.40;100.00
71457;BME280;59263;48.160;11.752;2023-04-15T02:49:52;94774.88;;;5.33;100.00
71457;BME280;59263;48.160;11.752;2023-04-15T02:52:17;94771.38;;;5.34;100.00
71457;BME280;59263;48.160;11.752;2023-04-15T02:54:43;94775.94;;;5.40;100.00
71457;BME280;59263;48.160;11.752;2023-04-15T02:57:08;94790.91;;;5.54;100.00
71457;BME280;59263;48.160;11.752;2023-04-15T02:59:35;94791.03;;;5.63;100.00
71457;BME280;59263;48.160;11.752;2023-04-15T03:02:01;94792.69;;;5.44;100.00
71457;BME280;59263;48.160;11.752;2023-04-15T03:04:26;94800.94;;;5.38;100.00
71457;BME280;59263;48.160;11.752;2023-04-15T03:06:54;94787.03;;;5.31;100.00
71457;BME280;59263;48.160;11.752;2023-04-15T03:09:20;94804.72;;;5.34;100.00
71457;BME280;59263;48.160;11.752;2023-04-15T03:11:45;94795.28;;;5.25;100.00
71457;BME280;59263;48.160;11.752;2023-04-15T03:14:10;94800.25;;;5.36;100.00
71457;BME280;59263;48.160;11.752;2023-04-15T03:16:36;94794.03;;;5.29;100.00
71457;BME280;59263;48.160;11.752;2023-04-15T03:19:01;94793.47;;;5.45;100.00
71457;BME280;59263;48.160;11.752;2023-04-15T03:21:26;94794.06;;;5.39;100.00
71457;BME280;59263;48.160;11.752;2023-04-15T03:23:52;94800.53;;;5.33;100.00
71457;BME280;59263;48.160;11.752;2023-04-15T03:26:30;94788.66;;;5.32;100.00
71457;BME280;59263;48.160;11.752;2023-04-15T03:28:56;94777.06;;;5.28;100.00
71457;BME280;59263;48.160;11.752;2023-04-15T03:31:21;94804.97;;;5.41;100.00
71457;BME280;59263;48.160;11.752;2023-04-15T03:33:47;94813.19;;;5.44;100.00
71457;BME280;59263;48.160;11.752;2023-04-15T03:36:12;94805.78;;;5.41;100.00
71457;BME280;59263;48.160;11.752;2023-04-15T03:38:37;94805.50;;;5.44;100.00
71457;BME280;59263;48.160;11.752;2023-04-15T03:41:03;94807.41;;;5.42;100.00
71457;BME280;59263;48.160;11.752;2023-04-15T03:43:28;94805.38;;;5.46;100.00
71457;BME280;59263;48.160;11.752;2023-04-15T03:45:53;94808.22;;;5.43;100.00
71457;BME280;59263;48.160;11.752;2023-04-15T03:48:19;94798.75;;;5.43;100.00
71457;BME280;59263;48.160;11.752;2023-04-15T03:50:44;94806.47;;;5.43;100.00
71457;BME280;59263;48.160;11.752;2023-04-15T03:53:10;94803.78;;;5.35;100.00
71457;BME280;59263;48.160;11.752;2023-04-15T03:55:35;94810.50;;;5.36;100.00
71457;BME280;59263;48.160;11.752;2023-04-15T03:58:01;94785.97;;;5.24;100.00
71457;BME280;59263;48.160;11.752;2023-04-15T04:00:26;94798.06;;;5.41;100.00
71457;BME280;59263;48.160;11.752;2023-04-15T04:02:51;94790.13;;;5.25;100.00
71457;BME280;59263;48.160;11.752;2023-04-15T04:05:16;94799.19;;;5.29;100.00
71457;BME280;59263;48.160;11.752;2023-04-15T04:07:42;94803.50;;;5.38;100.00
71457;BME280;59263;48.160;11.752;2023-04-15T04:10:07;94798.66;;;5.35;100.00
71457;BME280;59263;48.160;11.752;2023-04-15T04:12:33;94773.41;;;5.21;100.00
71457;BME280;59263;48.160;11.752;2023-04-15T04:14:58;94799.03;;;5.40;100.00
71457;BME280;59263;48.160;11.752;2023-04-15T04:17:23;94803.78;;;5.35;100.00
71457;BME280;59263;48.160;11.752;2023-04-15T04:19:49;94802.44;;;5.31;100.00
71457;BME280;59263;48.160;11.752;2023-04-15T04:22:14;94783.91;;;5.37;100.00
71457;BME280;59263;48.160;11.752;2023-04-15T04:24:39;94790.53;;;5.30;100.00
71457;BME280;59263;48.160;11.752;2023-04-15T04:27:05;94784.09;;;5.16;100.00
71457;BME280;59263;48.160;11.752;2023-04-15T04:29:30;94805.13;;;5.29;100.00
71457;BME280;59263;48.160;11.752;2023-04-15T04:31:55;94804.31;;;5.29;100.00
71457;BME280;59263;48.160;11.752;2023-04-15T04:34:21;94811.19;;;5.19;100.00
71457;BME280;59263;48.160;11.752;2023-04-15T04:36:46;94809.16;;;5.32;100.00
71457;BME280;59263;48.160;11.752;2023-04-15T04:39:11;94810.25;;;5.20;100.00
71457;BME280;59263;48.160;11.752;2023-04-15T04:41:36;94807.56;;;5.21;100.00
71457;BME280;59263;48.160;11.752;2023-04-15T04:44:02;94805.81;;;5.12;100.00
71457;BME280;59263;48.160;11.752;2023-04-15T04:46:27;94814.84;;;5.06;100.00
71457;BME280;59263;48.160;11.752;2023-04-15T04:48:53;94818.09;;;5.28;100.00
71457;BME280;59263;48.160;11.752;2023-04-15T04:51:18;94806.63;;;5.13;100.00
71457;BME280;59263;48.160;11.752;2023-04-15T04:53:43;94802.69;;;5.08;100.00
71457;BME280;59263;48.160;11.752;2023-04-15T04:56:09;94809.72;;;5.16;100.00
71457;BME280;59263;48.160;11.752;2023-04-15T04:58:34;94816.47;;;5.27;100.00
71457;BME280;59263;48.160;11.752;2023-04-15T05:01:00;94810.78;;;5.33;100.00
71457;BME280;59263;48.160;11.752;2023-04-15T05:03:25;94790.00;;;5.26;100.00
71457;BME280;59263;48.160;11.752;2023-04-15T05:05:51;94796.72;;;5.37;100.00
71457;BME280;59263;48.160;11.752;2023-04-15T05:08:17;94809.84;;;5.34;100.00
71457;BME280;59263;48.160;11.752;2023-04-15T05:10:42;94802.69;;;5.18;100.00
71457;BME280;59263;48.160;11.752;2023-04-15T05:13:07;94810.78;;;5.33;100.00
71457;BME280;59263;48.160;11.752;2023-04-15T05:15:33;94807.00;;;5.37;100.00
71457;BME280;59263;48.160;11.752;2023-04-15T05:18:01;94786.78;;;5.24;100.00
71457;BME280;59263;48.160;11.752;2023-04-15T05:20:26;94801.31;;;5.33;100.00
71457;BME280;59263;48.160;11.752;2023-04-15T05:22:51;94783.25;;;5.25;100.00
71457;BME280;59263;48.160;11.752;2023-04-15T05:25:17;94808.63;;;5.38;100.00
71457;BME280;59263;48.160;11.752;2023-04-15T05:27:42;94794.47;;;5.34;100.00
71457;BME280;59263;48.160;11.752;2023-04-15T05:30:08;94802.44;;;5.31;100.00
71457;BME280;59263;48.160;11.752;2023-04-15T05:32:33;94806.88;;;5.29;100.00
71457;BME280;59263;48.160;11.752;2023-04-15T05:34:59;94811.47;;;5.35;100.00
71457;BME280;59263;48.160;11.752;2023-04-15T05:37:24;94807.28;;;5.34;100.00
71457;BME280;59263;48.160;11.752;2023-04-15T05:39:50;94784.06;;;5.26;100.00
71457;BME280;59263;48.160;11.752;2023-04-15T05:42:16;94817.94;;;5.49;100.00
71457;BME280;59263;48.160;11.752;2023-04-15T05:44:41;94817.91;;;5.58;100.00
71457;BME280;59263;48.160;11.752;2023-04-15T05:47:06;94804.84;;;5.42;100.00
71457;BME280;59263;48.160;11.752;2023-04-15T05:49:33;94822.94;;;5.50;100.00
71457;BME280;59263;48.160;11.752;2023-04-15T05:51:59;94807.16;;;5.45;100.00
71457;BME280;59263;48.160;11.752;2023-04-15T05:54:24;94821.31;;;5.49;100.00
71457;BME280;59263;48.160;11.752;2023-04-15T05:56:52;94815.38;;;5.49;100.00
71457;BME280;59263;48.160;11.752;2023-04-15T05:59:17;94825.75;;;5.47;100.00
71457;BME280;59263;48.160;11.752;2023-04-15T06:01:42;94829.38;;;5.74;100.00
71457;BME280;59263;48.160;11.752;2023-04-15T06:04:09;94831.56;;;5.69;100.00
71457;BME280;59263;48.160;11.752;2023-04-15T06:06:35;94821.56;;;5.66;100.00
71457;BME280;59263;48.160;11.752;2023-04-15T06:09:01;94843.47;;;5.60;100.00
71457;BME280;59263;48.160;11.752;2023-04-15T06:11:26;94794.31;;;5.45;100.00
71457;BME280;59263;48.160;11.752;2023-04-15T06:13:51;94837.63;;;5.68;100.00
71457;BME280;59263;48.160;11.752;2023-04-15T06:16:17;94834.66;;;5.63;100.00
71457;BME280;59263;48.160;11.752;2023-04-15T06:18:42;94839.38;;;5.67;100.00
71457;BME280;59263;48.160;11.752;2023-04-15T06:21:07;94845.84;;;5.81;100.00
71457;BME280;59263;48.160;11.752;2023-04-15T06:23:34;94833.53;;;5.85;100.00
71457;BME280;59263;48.160;11.752;2023-04-15T06:26:00;94839.34;;;5.96;100.00
71457;BME280;59263;48.160;11.752;2023-04-15T06:28:26;94836.13;;;5.94;100.00
71457;BME280;59263;48.160;11.752;2023-04-15T06:30:52;94839.22;;;5.88;100.00
71457;BME280;59263;48.160;11.752;2023-04-15T06:33:18;94828.81;;;5.99;100.00
71457;BME280;59263;48.160;11.752;2023-04-15T06:35:43;94838.81;;;6.02;100.00
71457;BME280;59263;48.160;11.752;2023-04-15T06:38:09;94838.47;;;6.15;100.00
71457;BME280;59263;48.160;11.752;2023-04-15T06:40:34;94833.88;;;6.19;100.00
71457;BME280;59263;48.160;11.752;2023-04-15T06:43:00;94826.56;;;6.24;100.00
71457;BME280;59263;48.160;11.752;2023-04-15T06:45:25;94832.25;;;6.18;100.00
71457;BME280;59263;48.160;11.752;2023-04-15T06:47:51;94835.16;;;6.42;100.00
71457;BME280;59263;48.160;11.752;2023-04-15T06:50:16;94831.34;;;6.46;100.00
71457;BME280;59263;48.160;11.752;2023-04-15T06:52:42;94838.78;;;6.49;100.00
71457;BME280;59263;48.160;11.752;2023-04-15T06:55:08;94843.22;;;6.47;100.00
71457;BME280;59263;48.160;11.752;2023-04-15T06:57:34;94849.59;;;6.53;100.00
71457;BME280;59263;48.160;11.752;2023-04-15T06:59:59;94845.06;;;6.65;100.00
71457;BME280;59263;48.160;11.752;2023-04-15T07:02:25;94851.25;;;6.72;100.00
71457;BME280;59263;48.160;11.752;2023-04-15T07:04:50;94856.38;;;6.72;100.00
71457;BME280;59263;48.160;11.752;2023-04-15T07:07:15;94844.88;;;6.76;100.00
71457;BME280;59263;48.160;11.752;2023-04-15T07:09:41;94841.19;;;6.78;100.00
71457;BME280;59263;48.160;11.752;2023-04-15T07:12:07;94839.63;;;6.68;100.00
71457;BME280;59263;48.160;11.752;2023-04-15T07:14:32;94840.16;;;6.89;100.00
71457;BME280;59263;48.160;11.752;2023-04-15T07:16:57;94835.22;;;6.78;100.00
71457;BME280;59263;48.160;11.752;2023-04-15T07:19:22;94839.28;;;6.81;100.00
71457;BME280;59263;48.160;11.752;2023-04-15T07:21:48;94848.19;;;6.86;100.00
71457;BME280;59263;48.160;11.752;2023-04-15T07:24:13;94845.63;;;6.86;100.00
71457;BME280;59263;48.160;11.752;2023-04-15T07:26:42;94847.47;;;6.94;100.00
71457;BME280;59263;48.160;11.752;2023-04-15T07:29:08;94845.56;;;6.96;100.00
71457;BME280;59263;48.160;11.752;2023-04-15T07:31:34;94852.63;;;7.12;100.00
71457;BME280;59263;48.160;11.752;2023-04-15T07:34:00;94843.34;;;7.19;100.00
71457;BME280;59263;48.160;11.752;2023-04-15T07:36:26;94835.06;;;7.07;100.00
71457;BME280;59263;48.160;11.752;2023-04-15T07:38:53;94853.38;;;7.22;100.00
71457;BME280;59263;48.160;11.752;2023-04-15T07:41:19;94842.50;;;7.28;100.00
71457;BME280;59263;48.160;11.752;2023-04-15T07:43:45;94850.16;;;7.20;100.00
71457;BME280;59263;48.160;11.752;2023-04-15T07:46:10;94854.91;;;7.33;100.00
71457;BME280;59263;48.160;11.752;2023-04-15T07:48:36;94842.28;;;7.21;100.00
71457;BME280;59263;48.160;11.752;2023-04-15T07:51:01;94855.16;;;7.39;100.00
71457;BME280;59263;48.160;11.752;2023-04-15T07:53:27;94842.22;;;7.31;100.00
71457;BME280;59263;48.160;11.752;2023-04-15T07:55:53;94829.47;;;7.47;100.00
71457;BME280;59263;48.160;11.752;2023-04-15T07:58:18;94848.63;;;7.71;100.00
71457;BME280;59263;48.160;11.752;2023-04-15T08:00:43;94850.97;;;7.82;100.00
71457;BME280;59263;48.160;11.752;2023-04-15T08:03:09;94835.22;;;7.85;100.00
71457;BME280;59263;48.160;11.752;2023-04-15T08:05:34;94843.88;;;8.02;100.00
71457;BME280;59263;48.160;11.752;2023-04-15T08:07:59;94827.31;;;8.05;100.00
71457;BME280;59263;48.160;11.752;2023-04-15T08:10:25;94826.19;;;8.07;100.00
71457;BME280;59263;48.160;11.752;2023-04-15T08:12:51;94830.75;;;8.13;100.00
71457;BME280;59263;48.160;11.752;2023-04-15T08:15:19;94813.81;;;8.11;100.00
71457;BME280;59263;48.160;11.752;2023-04-15T08:17:44;94828.44;;;8.36;100.00
71457;BME280;59263;48.160;11.752;2023-04-15T08:20:10;94821.47;;;8.55;100.00
71457;BME280;59263;48.160;11.752;2023-04-15T08:22:35;94827.91;;;8.59;100.00
71457;BME280;59263;48.160;11.752;2023-04-15T08:25:01;94831.66;;;8.64;100.00
71457;BME280;59263;48.160;11.752;2023-04-15T08:27:26;94822.47;;;8.62;100.00
71457;BME280;59263;48.160;11.752;2023-04-15T08:29:51;94818.50;;;8.76;100.00
71457;BME280;59263;48.160;11.752;2023-04-15T08:32:17;94824.09;;;8.71;100.00
71457;BME280;59263;48.160;11.752;2023-04-15T08:34:43;94830.78;;;8.90;100.00
71457;BME280;59263;48.160;11.752;2023-04-15T08:37:08;94837.66;;;8.81;100.00
71457;BME280;59263;48.160;11.752;2023-04-15T08:39:33;94840.31;;;8.98;100.00
71457;BME280;59263;48.160;11.752;2023-04-15T08:42:01;94836.47;;;9.10;100.00
71457;BME280;59263;48.160;11.752;2023-04-15T08:44:32;94841.03;;;9.24;100.00
71457;BME280;59263;48.160;11.752;2023-04-15T08:47:01;94835.69;;;9.26;100.00
71457;BME280;59263;48.160;11.752;2023-04-15T08:49:27;94835.22;;;9.38;100.00
71457;BME280;59263;48.160;11.752;2023-04-15T08:51:53;94836.84;;;9.39;100.00
71457;BME280;59263;48.160;11.752;2023-04-15T08:54:20;94838.13;;;9.43;100.00
71457;BME280;59263;48.160;11.752;2023-04-15T08:56:47;94845.56;;;9.38;100.00
71457;BME280;59263;48.160;11.752;2023-04-15T08:59:13;94852.34;;;9.39;100.00
71457;BME280;59263;48.160;11.752;2023-04-15T09:01:40;94854.56;;;9.34;100.00
71457;BME280;59263;48.160;11.752;2023-04-15T09:04:06;94841.84;;;9.49;100.00
71457;BME280;59263;48.160;11.752;2023-04-15T09:06:32;94848.81;;;9.57;100.00
71457;BME280;59263;48.160;11.752;2023-04-15T09:08:57;94843.94;;;9.70;100.00
71457;BME280;59263;48.160;11.752;2023-04-15T09:11:23;94851.69;;;9.78;100.00
71457;BME280;59263;48.160;11.752;2023-04-15T09:13:48;94846.22;;;9.65;100.00
71457;BME280;59263;48.160;11.752;2023-04-15T09:16:14;94862.34;;;9.59;100.00
71457;BME280;59263;48.160;11.752;2023-04-15T09:18:40;94847.47;;;9.53;100.00
71457;BME280;59263;48.160;11.752;2023-04-15T09:21:10;94857.81;;;9.53;100.00
71457;BME280;59263;48.160;11.752;2023-04-15T09:23:37;94858.97;;;9.50;100.00
71457;BME280;59263;48.160;11.752;2023-04-15T09:26:03;94862.97;;;9.36;100.00
71457;BME280;59263;48.160;11.752;2023-04-15T09:28:29;94867.94;;;9.30;100.00
71457;BME280;59263;48.160;11.752;2023-04-15T09:30:59;94872.31;;;9.29;100.00
71457;BME280;59263;48.160;11.752;2023-04-15T09:33:26;94875.50;;;9.23;100.00
71457;BME280;59263;48.160;11.752;2023-04-15T09:36:00;94862.78;;;9.21;100.00
71457;BME280;59263;48.160;11.752;2023-04-15T09:38:26;94880.03;;;9.21;100.00
71457;BME280;59263;48.160;11.752;2023-04-15T09:40:52;94878.44;;;9.20;100.00
71457;BME280;59263;48.160;11.752;2023-04-15T09:43:17;94868.72;;;9.14;100.00
71457;BME280;59263;48.160;11.752;2023-04-15T09:45:52;94877.44;;;9.13;100.00
71457;BME280;59263;48.160;11.752;2023-04-15T09:48:24;94873.53;;;9.01;100.00
71457;BME280;59263;48.160;11.752;2023-04-15T09:50:57;94876.75;;;9.03;100.00
71457;BME280;59263;48.160;11.752;2023-04-15T09:53:24;94874.19;;;9.11;100.00
71457;BME280;59263;48.160;11.752;2023-04-15T09:55:55;94876.97;;;9.17;100.00
71457;BME280;59263;48.160;11.752;2023-04-15T09:58:23;94848.69;;;8.91;100.00
71457;BME280;59263;48.160;11.752;2023-04-15T10:00:50;94875.50;;;9.15;100.00
71457;BME280;59263;48.160;11.752;2023-04-15T10:03:21;94873.91;;;9.22;100.00
71457;BME280;59263;48.160;11.752;2023-04-15T10:05:48;94866.47;;;9.19;100.00
71457;BME280;59263;48.160;11.752;2023-04-15T10:08:16;94871.97;;;9.16;100.00
71457;BME280;59263;48.160;11.752;2023-04-15T10:10:44;94874.25;;;9.27;100.00
71457;BME280;59263;48.160;11.752;2023-04-15T10:13:10;94839.19;;;9.08;100.00
71457;BME280;59263;48.160;11.752;2023-04-15T10:15:37;94858.09;;;9.17;100.00
71457;BME280;59263;48.160;11.752;2023-04-15T10:18:04;94871.31;;;9.22;100.00
71457;BME280;59263;48.160;11.752;2023-04-15T10:20:29;94862.94;;;9.20;100.00
71457;BME280;59263;48.160;11.752;2023-04-15T10:22:55;94870.41;;;9.31;100.00
71457;BME280;59263;48.160;11.752;2023-04-15T10:25:22;94868.75;;;9.30;100.00
71457;BME280;59263;48.160;11.752;2023-04-15T10:27:50;94864.09;;;9.34;100.00
71457;BME280;59263;48.160;11.752;2023-04-15T10:30:17;94869.91;;;9.28;100.00
71457;BME280;59263;48.160;11.752;2023-04-15T10:32:44;94871.03;;;9.25;100.00
71457;BME280;59263;48.160;11.752;2023-04-15T10:35:10;94881.22;;;9.35;100.00
71457;BME280;59263;48.160;11.752;2023-04-15T10:37:37;94879.75;;;9.40;100.00
71457;BME280;59263;48.160;11.752;2023-04-15T10:40:25;94879.25;;;9.37;100.00
71457;BME280;59263;48.160;11.752;2023-04-15T10:42:56;94877.53;;;9.45;100.00
71457;BME280;59263;48.160;11.752;2023-04-15T10:45:27;94870.72;;;9.44;100.00
71457;BME280;59263;48.160;11.752;2023-04-15T10:47:57;94892.38;;;9.60;100.00
71457;BME280;59263;48.160;11.752;2023-04-15T10:50:25;94878.81;;;9.50;100.00
71457;BME280;59263;48.160;11.752;2023-04-15T10:52:52;94882.34;;;9.49;100.00
71457;BME280;59263;48.160;11.752;2023-04-15T10:55:20;94897.22;;;9.55;100.00
71457;BME280;59263;48.160;11.752;2023-04-15T10:57:51;94888.50;;;9.56;100.00
71457;BME280;59263;48.160;11.752;2023-04-15T11:00:18;94883.63;;;9.53;100.00
71457;BME280;59263;48.160;11.752;2023-04-15T11:03:07;94891.41;;;9.61;100.00
71457;BME280;59263;48.160;11.752;2023-04-15T11:08:11;94890.63;;;9.77;100.00
71457;BME280;59263;48.160;11.752;2023-04-15T11:13:04;94878.19;;;9.72;100.00
71457;BME280;59263;48.160;11.752;2023-04-15T11:15:39;94887.84;;;9.78;100.00
71457;BME280;59263;48.160;11.752;2023-04-15T11:20:42;94891.41;;;9.77;100.00
71457;BME280;59263;48.160;11.752;2023-04-15T11:23:09;94904.03;;;9.88;100.00
71457;BME280;59263;48.160;11.752;2023-04-15T11:25:35;94903.03;;;9.81;100.00
71457;BME280;59263;48.160;11.752;2023-04-15T11:28:04;94902.72;;;9.84;100.00
71457;BME280;59263;48.160;11.752;2023-04-15T11:30:34;94901.44;;;9.88;100.00
71457;BME280;59263;48.160;11.752;2023-04-15T11:33:01;94900.78;;;9.78;100.00
71457;BME280;59263;48.160;11.752;2023-04-15T11:35:27;94882.53;;;9.63;100.00
71457;BME280;59263;48.160;11.752;2023-04-15T11:37:53;94898.50;;;9.67;100.00
71457;BME280;59263;48.160;11.752;2023-04-15T11:40:24;94888.16;;;9.59;100.00
71457;BME280;59263;48.160;11.752;2023-04-15T11:45:36;94892.06;;;9.71;100.00
71457;BME280;59263;48.160;11.752;2023-04-15T11:50:31;94861.69;;;9.49;100.00
71457;BME280;59263;48.160;11.752;2023-04-15T11:52:59;94899.00;;;9.54;100.00
71457;BME280;59263;48.160;11.752;2023-04-15T11:55:28;94900.09;;;9.60;100.00
71457;BME280;59263;48.160;11.752;2023-04-15T11:58:10;94904.28;;;9.53;100.00
71457;BME280;59263;48.160;11.752;2023-04-15T12:00:36;94902.19;;;9.48;100.00
71457;BME280;59263;48.160;11.752;2023-04-15T12:03:46;94901.38;;;9.31;100.00
71457;BME280;59263;48.160;11.752;2023-04-15T12:06:20;94904.91;;;9.30;100.00
71457;BME280;59263;48.160;11.752;2023-04-15T12:09:09;94913.19;;;9.42;100.00
71457;BME280;59263;48.160;11.752;2023-04-15T12:16:41;94919.28;;;9.49;100.00
71457;BME280;59263;48.160;11.752;2023-04-15T12:19:10;94925.94;;;9.52;100.00
71457;BME280;59263;48.160;11.752;2023-04-15T12:21:38;94894.53;;;9.14;100.00
71457;BME280;59263;48.160;11.752;2023-04-15T12:24:08;94912.31;;;9.25;100.00
71457;BME280;59263;48.160;11.752;2023-04-15T12:29:03;94933.28;;;9.30;100.00
71457;BME280;59263;48.160;11.752;2023-04-15T12:31:28;94927.19;;;9.31;100.00
71457;BME280;59263;48.160;11.752;2023-04-15T12:33:57;94937.34;;;9.41;100.00
71457;BME280;59263;48.160;11.752;2023-04-15T12:36:23;94934.94;;;9.31;100.00
71457;BME280;59263;48.160;11.752;2023-04-15T12:38:49;94930.06;;;9.20;100.00
71457;BME280;59263;48.160;11.752;2023-04-15T12:41:15;94908.06;;;9.08;100.00
71457;BME280;59263;48.160;11.752;2023-04-15T12:43:40;94919.38;;;9.15;100.00
71457;BME280;59263;48.160;11.752;2023-04-15T12:46:06;94943.09;;;9.18;100.00
71457;BME280;59263;48.160;11.752;2023-04-15T12:48:33;94937.44;;;9.15;100.00
71457;BME280;59263;48.160;11.752;2023-04-15T12:50:58;94911.91;;;8.95;100.00
71457;BME280;59263;48.160;11.752;2023-04-15T12:53:24;94943.13;;;9.27;100.00
71457;BME280;59263;48.160;11.752;2023-04-15T12:55:50;94952.94;;;9.15;100.00
71457;BME280;59263;48.160;11.752;2023-04-15T12:58:16;94943.41;;;9.15;100.00
71457;BME280;59263;48.160;11.752;2023-04-15T13:00:41;94940.81;;;9.07;100.00
71457;BME280;59263;48.160;11.752;2023-04-15T13:03:06;94952.28;;;9.13;100.00
71457;BME280;59263;48.160;11.752;2023-04-15T13:05:32;94941.00;;;9.14;100.00
71457;BME280;59263;48.160;11.752;2023-04-15T13:07:57;94948.06;;;9.12;100.00